Albion, Michigan
Current Conditions -  °F | °C
As of 9:14 AM on Wednesday 26 Nov 2014 (Local Time) from KRMY Reporting Station
Overcast Overcast  
Wind Chill: -3°   Ceiling: 2000
Heat Index: -3°   Visibility: 10mi
Dew Point: -7°   Wind: 3mph
Humidity: 75%   Direction: 100°E
Pressure: 30.16"   Gusts: NA
Location:  42.25°N, 84.75°W
Report Text: KRMY 261414Z AUTO 10003KT 10SM OVC020 M03/M07 A3016 RMK AO2 T10311070
Loading
Personal Weather Stations






























Interactive Weather Map New forecast layout! Learn more

10-Day Weather Forecast

Advertisements
Track Severe Weather on mobile